Kambalda/Lake Lefroy, Australia
Current Conditions -  °F | °C
As of 8:00 AM on Saturday 29 Nov 2014 (Local Time) from YPKG Reporting Station
Clear Clear  
Wind Chill: 66°   Ceiling: Unl
Heat Index: 66°   Visibility: 6mi
Dew Point: 59°   Wind: 8mph
Humidity: 78%   Direction: 170°S
Pressure: 29.91"   Gusts: NA
Location:  31.17°S, 121.62°E
Report Text: YPKG 290000Z AUTO 17007KT 9999 // NCD 19/15 Q1013
Loading
Personal Weather Stations






























Interactive Weather Map New forecast layout! Learn more

10-Day Weather Forecast

Advertisements
Track Severe Weather on mobile